Skip Navigation Links Skip Navigation Links

Current Weather

Kitakyushu Airport, Japan

For information only: do not use for flight planning or navigation.
Latest weather
Observation time Saturday, January 22, 2022 4:00 AM JST
Local time Saturday, January 22, 2022 4:30 AM JST
Flight conditions Visual Meteorological Conditions
Winds
Wind direction South-Southeast (150°)
Wind speed 8 mph
Visibility 6.2 mi.
Sky condition
Ceiling 18,000 ft. broken clouds
Cloud layer few clouds 2,500 ft.
Cloud layer scattered clouds 3,500 ft.
Cloud layer broken clouds 18,000 ft.
Temperature 43°F
Dewpoint 34°F
Altimeter 30.36 in.Hg
Derived measurements
Relative humidity 70%
Wind chill 38°F
Density altitude -1482 ft.
METAR RJFR 211900Z 15007KT 9999 FEW025 SCT035 BKN180 06/01 Q1028

Settings

Location code

InnerDrive.Weather 4.0.6770.0 Release CLR 4.0.30319.42000
Copyright ©2018 Inner Drive Technology. All rights reserved. Portions Copyright ©1986-2018 David Braverman.

Find weather

Site navigation


Skip Navigation Links

Place info

Page info

PayPal - The safer, easier way to pay online!

Return home.

Copyright ©2022 Inner Drive Technology. Purveyors of fine, hand-crafted computer software. Page printed 2022-01-21T19:30:29 UTC.